createdAt,value
2016-12-02T00:00:11.807Z,17.70
2016-12-02T00:01:10.114Z,17.70
2016-12-02T00:02:11.841Z,17.60
2016-12-02T00:03:12.433Z,17.70
2016-12-02T00:04:12.336Z,17.70
2016-12-02T00:05:13.077Z,17.70
2016-12-02T00:06:09.598Z,17.70
2016-12-02T00:07:12.725Z,17.70
2016-12-02T00:08:11.681Z,17.70
2016-12-02T00:09:11.070Z,17.70
2016-12-02T00:10:11.044Z,17.70
2016-12-02T00:11:11.705Z,17.70
2016-12-02T00:12:12.258Z,17.70
2016-12-02T00:13:11.453Z,17.70
2016-12-02T00:14:11.487Z,17.70
2016-12-02T00:15:12.061Z,17.70
2016-12-02T00:16:11.944Z,17.70
2016-12-02T00:17:12.564Z,17.70
2016-12-02T00:18:12.283Z,17.70
2016-12-02T00:19:11.307Z,17.70
2016-12-02T00:20:12.803Z,17.70
2016-12-02T00:21:08.927Z,17.70
2016-12-02T00:22:12.302Z,17.70
2016-12-02T00:23:11.456Z,17.60
2016-12-02T00:24:12.139Z,17.70
2016-12-02T00:25:11.806Z,17.70
2016-12-02T00:26:12.378Z,17.60
2016-12-02T00:27:11.971Z,17.60
2016-12-02T00:28:13.600Z,17.60
2016-12-02T00:29:12.377Z,17.60
2016-12-02T00:30:11.340Z,17.60
2016-12-02T00:31:12.131Z,17.60
2016-12-02T00:32:11.656Z,17.60
2016-12-02T00:33:10.045Z,17.60
2016-12-02T00:34:11.570Z,17.60
2016-12-02T00:35:12.398Z,17.60
2016-12-02T00:36:12.208Z,17.60
2016-12-02T00:37:11.263Z,17.60
2016-12-02T00:38:11.330Z,17.60
2016-12-02T00:39:11.439Z,17.60
2016-12-02T00:40:11.476Z,17.60
2016-12-02T00:41:12.151Z,17.60
2016-12-02T00:42:12.869Z,17.60
2016-12-02T00:43:13.020Z,17.60
2016-12-02T00:44:11.906Z,17.60
2016-12-02T00:45:11.207Z,17.60
2016-12-02T00:46:11.711Z,17.60
2016-12-02T00:47:12.511Z,17.60
2016-12-02T00:48:10.004Z,17.60
2016-12-02T00:49:12.441Z,17.60
2016-12-02T00:50:11.571Z,17.60
2016-12-02T00:51:12.342Z,17.60
2016-12-02T00:52:13.068Z,17.60
2016-12-02T00:53:11.838Z,17.60
2016-12-02T00:54:12.695Z,17.60
2016-12-02T00:55:13.012Z,17.60
2016-12-02T00:56:09.622Z,17.60
2016-12-02T00:57:11.252Z,17.60
2016-12-02T00:58:09.123Z,17.60
2016-12-02T00:59:12.392Z,17.60
2016-12-02T01:00:11.775Z,17.60
2016-12-02T01:01:13.125Z,17.60
2016-12-02T01:02:12.102Z,17.60
2016-12-02T01:03:14.140Z,17.60
2016-12-02T01:04:11.948Z,17.60
2016-12-02T01:05:15.126Z,17.60
2016-12-02T01:06:11.798Z,17.60
2016-12-02T01:07:11.919Z,17.60
2016-12-02T01:08:13.617Z,17.60
2016-12-02T01:09:12.168Z,17.60
2016-12-02T01:10:13.263Z,17.60
2016-12-02T01:11:13.201Z,17.60
2016-12-02T01:12:12.108Z,17.60
2016-12-02T01:13:13.196Z,17.60
2016-12-02T01:14:14.000Z,17.60
2016-12-02T01:15:12.180Z,17.60
2016-12-02T01:16:13.322Z,17.60
2016-12-02T01:17:13.837Z,17.60
2016-12-02T01:18:13.935Z,17.60
2016-12-02T01:19:12.339Z,17.60
2016-12-02T01:20:13.695Z,17.60
2016-12-02T01:21:12.167Z,17.60
2016-12-02T01:22:11.562Z,17.60
2016-12-02T01:23:13.845Z,17.60
2016-12-02T01:24:12.809Z,17.60
2016-12-02T01:25:14.168Z,17.60
2016-12-02T01:26:14.735Z,17.60
2016-12-02T01:27:11.254Z,17.60
2016-12-02T01:28:12.987Z,17.60
2016-12-02T01:29:13.883Z,17.60
2016-12-02T01:30:09.949Z,17.60
2016-12-02T01:31:11.847Z,17.60
2016-12-02T01:32:12.103Z,17.60
2016-12-02T01:33:12.474Z,17.60
2016-12-02T01:34:12.839Z,17.60
2016-12-02T01:35:13.186Z,17.60
2016-12-02T01:36:12.553Z,17.60
2016-12-02T01:37:14.589Z,17.60
2016-12-02T01:38:13.490Z,17.60
2016-12-02T01:39:11.957Z,17.60
2016-12-02T01:40:11.500Z,17.60
2016-12-02T01:41:12.513Z,17.60
2016-12-02T01:42:13.999Z,17.60
2016-12-02T01:43:15.648Z,17.60
2016-12-02T01:44:11.964Z,17.60
2016-12-02T01:45:10.314Z,17.60
2016-12-02T01:46:11.689Z,17.60
2016-12-02T01:47:12.016Z,17.60
2016-12-02T01:48:09.873Z,17.60
2016-12-02T01:49:12.693Z,17.60
2016-12-02T01:50:12.332Z,17.60
2016-12-02T01:51:14.162Z,17.60
2016-12-02T01:52:12.310Z,17.60
2016-12-02T01:53:12.105Z,17.60
2016-12-02T01:54:13.248Z,17.60
2016-12-02T01:55:12.309Z,17.60
2016-12-02T01:56:11.290Z,17.60
2016-12-02T01:57:13.972Z,17.60
2016-12-02T01:58:13.445Z,17.60
2016-12-02T01:59:13.451Z,17.60
2016-12-02T02:00:14.879Z,17.60
2016-12-02T02:01:13.442Z,17.60
2016-12-02T02:02:13.180Z,17.60
2016-12-02T02:03:13.783Z,17.60
2016-12-02T02:04:13.653Z,17.60
2016-12-02T02:05:11.763Z,17.60
2016-12-02T02:06:12.159Z,17.60
2016-12-02T02:07:12.649Z,17.60
2016-12-02T02:08:13.368Z,17.60
2016-12-02T02:09:12.646Z,17.60
2016-12-02T02:10:12.229Z,17.60
2016-12-02T02:11:13.480Z,17.60
2016-12-02T02:12:12.976Z,17.60
2016-12-02T02:13:12.435Z,17.60
2016-12-02T02:14:08.959Z,17.60
2016-12-02T02:15:13.133Z,17.60
2016-12-02T02:16:11.580Z,17.60
2016-12-02T02:17:13.819Z,17.60
2016-12-02T02:18:14.504Z,17.60
2016-12-02T02:19:13.503Z,17.60
2016-12-02T02:20:12.804Z,17.60
2016-12-02T02:21:14.003Z,17.60
2016-12-02T02:22:12.485Z,17.60
2016-12-02T02:23:12.422Z,17.60
2016-12-02T02:24:10.148Z,17.60
2016-12-02T02:25:13.358Z,17.60
2016-12-02T02:26:11.309Z,17.60
2016-12-02T02:27:13.852Z,17.60
2016-12-02T02:28:13.280Z,17.60
2016-12-02T02:29:13.262Z,17.60
2016-12-02T02:30:12.547Z,17.60
2016-12-02T02:31:13.189Z,17.60
2016-12-02T02:32:11.298Z,17.60
2016-12-02T02:33:11.400Z,17.60
2016-12-02T02:34:11.671Z,17.60
2016-12-02T02:35:10.491Z,17.60
2016-12-02T02:36:10.660Z,17.60
2016-12-02T02:37:12.607Z,17.60
2016-12-02T02:38:11.613Z,17.60
2016-12-02T02:39:17.822Z,17.60
2016-12-02T02:40:13.521Z,17.60
2016-12-02T02:41:11.570Z,17.60
2016-12-02T02:42:11.691Z,17.60
2016-12-02T02:43:13.528Z,17.60
2016-12-02T02:44:13.759Z,17.60
2016-12-02T02:45:11.780Z,17.60
2016-12-02T02:46:12.892Z,17.60
2016-12-02T02:47:12.994Z,17.60
2016-12-02T02:48:14.157Z,17.60
2016-12-02T02:49:12.498Z,17.60
2016-12-02T02:50:13.380Z,17.60
2016-12-02T02:51:12.646Z,17.60
2016-12-02T02:52:12.832Z,17.60
2016-12-02T02:53:11.845Z,17.60
2016-12-02T02:54:12.395Z,17.60
2016-12-02T02:55:11.436Z,17.60
2016-12-02T02:56:11.984Z,17.60
2016-12-02T02:57:12.304Z,17.60
2016-12-02T02:58:12.988Z,17.60
2016-12-02T02:59:10.496Z,17.60
2016-12-02T03:00:12.536Z,17.60
2016-12-02T03:01:11.976Z,17.60
2016-12-02T03:02:12.578Z,17.60
2016-12-02T03:03:11.641Z,17.60
2016-12-02T03:04:12.190Z,17.60
2016-12-02T03:05:11.534Z,17.60
2016-12-02T03:06:13.205Z,17.60
2016-12-02T03:07:13.498Z,17.60
2016-12-02T03:08:11.595Z,17.60
2016-12-02T03:09:12.096Z,17.60
2016-12-02T03:10:11.838Z,17.60
2016-12-02T03:11:11.822Z,17.60
2016-12-02T03:12:12.074Z,17.60
2016-12-02T03:13:11.894Z,17.60
2016-12-02T03:14:12.282Z,17.60
2016-12-02T03:15:11.986Z,17.60
2016-12-02T03:16:12.052Z,17.60
2016-12-02T03:17:11.316Z,17.60
2016-12-02T03:18:12.113Z,17.60
2016-12-02T03:19:13.154Z,17.60
2016-12-02T03:20:13.400Z,17.60
2016-12-02T03:21:13.125Z,17.60
2016-12-02T03:22:12.236Z,17.60
2016-12-02T03:23:12.245Z,17.60
2016-12-02T03:24:12.906Z,17.60
2016-12-02T03:25:11.984Z,17.60
2016-12-02T03:26:11.973Z,17.60
2016-12-02T03:27:12.464Z,17.60
2016-12-02T03:28:12.440Z,17.60
2016-12-02T03:29:12.017Z,17.60
2016-12-02T03:30:11.688Z,17.60
2016-12-02T03:31:12.244Z,17.60
2016-12-02T03:32:12.023Z,17.60
2016-12-02T03:33:11.908Z,17.60
2016-12-02T03:34:12.895Z,17.60
2016-12-02T03:35:13.134Z,17.60
2016-12-02T03:36:08.910Z,17.60
2016-12-02T03:37:12.764Z,17.60
2016-12-02T03:38:12.367Z,17.60
2016-12-02T03:39:12.910Z,17.60
2016-12-02T03:40:11.925Z,17.60
2016-12-02T03:41:12.871Z,17.60
2016-12-02T03:42:12.353Z,17.60
2016-12-02T03:43:12.822Z,17.60
2016-12-02T03:44:12.336Z,17.60
2016-12-02T03:45:12.958Z,17.60
2016-12-02T03:46:13.288Z,17.60
2016-12-02T03:47:13.817Z,17.60
2016-12-02T03:48:12.391Z,17.60
2016-12-02T03:49:13.015Z,17.60
2016-12-02T03:50:11.776Z,17.60
2016-12-02T03:51:11.633Z,17.60
2016-12-02T03:52:12.306Z,17.60
2016-12-02T03:53:13.429Z,17.60
2016-12-02T03:54:11.456Z,17.60
2016-12-02T03:55:12.087Z,17.60
2016-12-02T03:56:11.072Z,17.60
2016-12-02T03:57:11.723Z,17.60
2016-12-02T03:58:12.446Z,17.60
2016-12-02T03:59:09.361Z,17.60
2016-12-02T04:00:12.220Z,17.60
2016-12-02T04:01:12.539Z,17.60
2016-12-02T04:02:08.652Z,17.60
2016-12-02T04:03:11.913Z,17.60
2016-12-02T04:04:11.735Z,17.60
2016-12-02T04:05:12.023Z,17.60
2016-12-02T04:06:11.159Z,17.60
2016-12-02T04:07:12.071Z,17.60
2016-12-02T04:08:11.676Z,17.60
2016-12-02T04:09:12.206Z,17.60
2016-12-02T04:10:12.849Z,17.60
2016-12-02T04:11:13.113Z,17.60
2016-12-02T04:12:11.117Z,17.60
2016-12-02T04:13:12.119Z,17.60
2016-12-02T04:14:11.936Z,17.60
2016-12-02T04:15:11.863Z,17.60
2016-12-02T04:16:12.466Z,17.60
2016-12-02T04:17:10.146Z,17.60
2016-12-02T04:18:11.682Z,17.60
2016-12-02T04:19:13.395Z,17.60
2016-12-02T04:20:11.344Z,17.60
2016-12-02T04:21:11.419Z,17.60
2016-12-02T04:22:12.305Z,17.60
2016-12-02T04:23:12.234Z,17.60
2016-12-02T04:24:12.380Z,17.60
2016-12-02T04:25:11.337Z,17.60
2016-12-02T04:26:13.238Z,17.60
2016-12-02T04:27:11.354Z,17.60
2016-12-02T04:28:10.703Z,17.60
2016-12-02T04:29:11.984Z,17.60
2016-12-02T04:30:12.537Z,17.60
2016-12-02T04:31:11.532Z,17.60
2016-12-02T04:32:12.502Z,17.60
2016-12-02T04:33:13.951Z,17.60
2016-12-02T04:34:12.792Z,17.60
2016-12-02T04:35:12.356Z,17.60
2016-12-02T04:36:11.365Z,17.60
2016-12-02T04:37:12.434Z,17.60
2016-12-02T04:38:12.301Z,17.60
2016-12-02T04:39:11.640Z,17.60
2016-12-02T04:40:13.326Z,17.60
2016-12-02T04:41:11.376Z,17.60
2016-12-02T04:42:12.424Z,17.60
2016-12-02T04:43:10.003Z,17.60
2016-12-02T04:44:09.825Z,17.60
2016-12-02T04:45:12.062Z,17.60
2016-12-02T04:46:11.795Z,17.60
2016-12-02T04:47:12.163Z,17.60
2016-12-02T04:48:11.306Z,17.60
2016-12-02T04:49:12.600Z,17.60
2016-12-02T04:50:11.725Z,17.60
2016-12-02T04:51:13.175Z,17.60
2016-12-02T04:52:11.235Z,17.60
2016-12-02T04:53:12.799Z,17.60
2016-12-02T04:54:12.313Z,17.60
2016-12-02T04:55:11.830Z,17.60
2016-12-02T04:56:12.234Z,17.60
2016-12-02T04:57:11.744Z,17.60
2016-12-02T04:58:11.631Z,17.60
2016-12-02T04:59:11.990Z,17.60
2016-12-02T05:00:12.235Z,17.60
2016-12-02T05:01:13.203Z,17.60
2016-12-02T05:02:12.072Z,17.60
2016-12-02T05:03:11.744Z,17.60
2016-12-02T05:04:11.844Z,17.60
2016-12-02T05:05:11.845Z,17.60
2016-12-02T05:06:11.862Z,17.60
2016-12-02T05:07:09.069Z,17.60
2016-12-02T05:08:11.378Z,17.60
2016-12-02T05:09:11.763Z,17.60
2016-12-02T05:10:12.155Z,17.60
2016-12-02T05:11:11.698Z,17.60
2016-12-02T05:12:11.814Z,17.60
2016-12-02T05:13:12.650Z,17.60
2016-12-02T05:14:11.633Z,17.60
2016-12-02T05:15:12.228Z,17.60
2016-12-02T05:16:12.007Z,17.60
2016-12-02T05:17:12.197Z,17.60
2016-12-02T05:18:11.172Z,17.60
2016-12-02T05:19:09.829Z,17.60
2016-12-02T05:20:11.974Z,17.60
2016-12-02T05:21:12.622Z,17.60
2016-12-02T05:22:12.045Z,17.60
2016-12-02T05:23:11.573Z,17.60
2016-12-02T05:24:11.510Z,17.60
2016-12-02T05:25:14.875Z,17.60
2016-12-02T05:26:15.236Z,17.60
2016-12-02T05:27:12.530Z,17.60
2016-12-02T05:28:11.872Z,17.60
2016-12-02T05:29:12.525Z,17.60
2016-12-02T05:30:12.774Z,17.60
2016-12-02T05:31:12.198Z,17.60
2016-12-02T05:32:11.815Z,17.60
2016-12-02T05:33:12.323Z,17.60
2016-12-02T05:34:11.397Z,17.60
2016-12-02T05:35:12.393Z,17.60
2016-12-02T05:36:11.546Z,17.60
2016-12-02T05:37:12.402Z,17.60
2016-12-02T05:38:12.075Z,17.60
2016-12-02T05:39:12.335Z,17.60
2016-12-02T05:40:12.753Z,17.60
2016-12-02T05:41:12.179Z,17.60
2016-12-02T05:42:11.615Z,17.60
2016-12-02T05:43:12.339Z,17.60
2016-12-02T05:44:10.083Z,17.60
2016-12-02T05:45:11.942Z,17.60
2016-12-02T05:46:12.300Z,17.60
2016-12-02T05:47:12.341Z,17.60
2016-12-02T05:48:11.524Z,17.60
2016-12-02T05:49:12.310Z,17.60
2016-12-02T05:50:11.786Z,17.60
2016-12-02T05:51:12.124Z,17.60
2016-12-02T05:52:12.466Z,17.60
2016-12-02T05:53:15.169Z,17.60
2016-12-02T05:54:11.653Z,17.60
2016-12-02T05:55:11.684Z,17.60
2016-12-02T05:56:11.762Z,17.60
2016-12-02T05:57:12.606Z,17.60
2016-12-02T05:58:11.539Z,17.60
2016-12-02T05:59:11.471Z,17.60
2016-12-02T06:00:13.033Z,17.60
2016-12-02T06:01:09.805Z,17.60
2016-12-02T06:02:11.896Z,17.60
2016-12-02T06:03:12.221Z,17.60
2016-12-02T06:04:12.002Z,17.60
2016-12-02T06:05:13.072Z,17.60
2016-12-02T06:06:11.813Z,17.60
2016-12-02T06:07:12.342Z,17.60
2016-12-02T06:08:11.460Z,17.60
2016-12-02T06:09:12.559Z,17.60
2016-12-02T06:10:11.600Z,17.60
2016-12-02T06:11:12.030Z,17.60
2016-12-02T06:12:11.789Z,17.60
2016-12-02T06:13:11.730Z,17.60
2016-12-02T06:14:13.172Z,17.60
2016-12-02T06:15:11.261Z,17.60
2016-12-02T06:16:12.281Z,17.60
2016-12-02T06:17:10.383Z,17.60
2016-12-02T06:18:11.825Z,17.60
2016-12-02T06:19:13.286Z,17.60
2016-12-02T06:20:13.074Z,17.60
2016-12-02T06:21:12.670Z,17.60
2016-12-02T06:22:12.241Z,17.60
2016-12-02T06:23:11.255Z,17.60
2016-12-02T06:24:11.625Z,17.60
2016-12-02T06:25:12.161Z,17.60
2016-12-02T06:26:11.248Z,17.60
2016-12-02T06:27:11.871Z,17.60
2016-12-02T06:28:12.731Z,17.60
2016-12-02T06:29:11.732Z,17.60
2016-12-02T06:30:12.553Z,17.60
2016-12-02T06:31:12.491Z,17.60
2016-12-02T06:32:12.294Z,17.60
2016-12-02T06:33:11.230Z,17.60
2016-12-02T06:34:13.012Z,17.60
2016-12-02T06:35:11.719Z,17.60
2016-12-02T06:36:12.890Z,17.60
2016-12-02T06:37:11.886Z,17.60
2016-12-02T06:38:10.145Z,17.60
2016-12-02T06:39:14.435Z,17.60
2016-12-02T06:40:12.362Z,17.60
2016-12-02T06:41:12.069Z,17.60
2016-12-02T06:42:11.194Z,16.80
2016-12-02T06:43:09.455Z,16.40
2016-12-02T06:44:10.982Z,15.60
2016-12-02T06:45:12.746Z,15.20
2016-12-02T06:46:11.291Z,14.70
2016-12-02T06:47:12.066Z,14.50
2016-12-02T06:48:12.040Z,14.70
2016-12-02T06:49:11.069Z,15.00
2016-12-02T06:50:11.348Z,15.30
2016-12-02T06:51:11.559Z,15.50
2016-12-02T06:52:12.127Z,15.80
2016-12-02T06:53:11.057Z,15.90
2016-12-02T06:54:12.203Z,16.10
2016-12-02T06:55:12.508Z,16.30
2016-12-02T06:56:11.553Z,16.40
2016-12-02T06:57:12.628Z,16.40
2016-12-02T06:58:12.102Z,16.50
2016-12-02T06:59:12.398Z,16.60
2016-12-02T07:00:11.442Z,16.60
2016-12-02T07:01:11.932Z,16.70
2016-12-02T07:02:12.425Z,16.70
2016-12-02T07:03:11.456Z,16.70
2016-12-02T07:04:11.474Z,16.70
2016-12-02T07:05:11.563Z,16.80
2016-12-02T07:06:11.665Z,16.80
2016-12-02T07:07:09.393Z,16.90
2016-12-02T07:08:11.947Z,17.00
2016-12-02T07:09:12.820Z,17.00
2016-12-02T07:10:11.868Z,17.10
2016-12-02T07:11:12.491Z,17.10
2016-12-02T07:12:12.690Z,17.10
2016-12-02T07:13:12.362Z,17.20
2016-12-02T07:14:12.401Z,17.20
2016-12-02T07:15:11.349Z,17.20
2016-12-02T07:16:12.879Z,17.20
2016-12-02T07:17:10.271Z,17.20
2016-12-02T07:18:12.398Z,17.20
2016-12-02T07:19:12.095Z,17.20
2016-12-02T07:20:11.431Z,17.20
2016-12-02T07:21:11.484Z,17.20
2016-12-02T07:22:12.034Z,17.20
2016-12-02T07:23:12.093Z,17.20
2016-12-02T07:24:12.005Z,17.20
2016-12-02T07:25:11.878Z,17.20
2016-12-02T07:26:12.500Z,17.30
2016-12-02T07:27:11.554Z,17.30
2016-12-02T07:28:10.076Z,17.30
2016-12-02T07:29:13.174Z,17.30
2016-12-02T07:30:11.250Z,17.30
2016-12-02T07:31:10.128Z,17.40
2016-12-02T07:32:12.066Z,17.40
2016-12-02T07:33:11.294Z,17.40
2016-12-02T07:34:11.860Z,17.40
2016-12-02T07:35:12.664Z,17.40
2016-12-02T07:36:11.602Z,17.40
2016-12-02T07:37:12.404Z,17.40
2016-12-02T07:38:11.368Z,17.40
2016-12-02T07:39:11.413Z,17.40
2016-12-02T07:40:12.202Z,17.50
2016-12-02T07:41:11.999Z,17.50
2016-12-02T07:42:12.455Z,17.50
2016-12-02T07:43:12.017Z,17.50
2016-12-02T07:44:14.602Z,17.50
2016-12-02T07:45:12.140Z,17.50
2016-12-02T07:46:11.120Z,17.50
2016-12-02T07:47:11.139Z,17.50
2016-12-02T07:48:11.207Z,17.50
2016-12-02T07:49:11.652Z,17.50
2016-12-02T07:50:13.227Z,17.50
2016-12-02T07:51:11.302Z,17.50
2016-12-02T07:52:11.878Z,17.50
2016-12-02T07:53:10.535Z,17.50
2016-12-02T07:54:11.793Z,17.50
2016-12-02T07:55:11.789Z,17.50
2016-12-02T07:56:11.844Z,17.50
2016-12-02T07:57:15.300Z,17.50
2016-12-02T07:58:11.993Z,17.50
2016-12-02T07:59:12.282Z,17.60
2016-12-02T08:00:12.092Z,17.50
2016-12-02T08:01:11.119Z,17.50
2016-12-02T08:02:11.127Z,17.50
2016-12-02T08:03:11.244Z,17.50
2016-12-02T08:04:11.339Z,17.60
2016-12-02T08:05:13.246Z,17.50
2016-12-02T08:06:12.025Z,17.50
2016-12-02T08:07:14.004Z,17.50
2016-12-02T08:08:12.066Z,17.50
2016-12-02T08:09:11.795Z,17.50
2016-12-02T08:10:11.721Z,17.50
2016-12-02T08:11:12.295Z,17.50
2016-12-02T08:12:11.801Z,17.50
2016-12-02T08:13:11.785Z,17.40
2016-12-02T08:14:12.393Z,17.40
2016-12-02T08:15:09.903Z,17.40
2016-12-02T08:16:11.380Z,17.40
2016-12-02T08:17:11.542Z,17.40
2016-12-02T08:18:11.643Z,17.40
2016-12-02T08:19:11.725Z,17.40
2016-12-02T08:20:13.568Z,17.40
2016-12-02T08:21:14.275Z,17.40
2016-12-02T08:22:11.232Z,17.40
2016-12-02T08:23:11.302Z,17.40
2016-12-02T08:24:11.975Z,17.40
2016-12-02T08:25:11.986Z,17.40
2016-12-02T08:26:13.081Z,17.40
2016-12-02T08:27:11.735Z,17.40
2016-12-02T08:28:13.531Z,17.40
2016-12-02T08:29:10.071Z,17.40
2016-12-02T08:30:11.522Z,17.40
2016-12-02T08:31:11.685Z,17.40
2016-12-02T08:32:13.321Z,17.40
2016-12-02T08:33:13.167Z,17.40
2016-12-02T08:34:11.749Z,17.40
2016-12-02T08:35:12.729Z,17.40
2016-12-02T08:36:12.307Z,17.40
2016-12-02T08:37:13.864Z,17.40
2016-12-02T08:38:11.949Z,17.40
2016-12-02T08:39:12.095Z,17.40
2016-12-02T08:40:11.011Z,17.40
2016-12-02T08:41:12.592Z,17.40
2016-12-02T08:42:13.192Z,17.40
2016-12-02T08:43:11.221Z,17.40
2016-12-02T08:44:11.309Z,17.40
2016-12-02T08:45:12.334Z,17.40
2016-12-02T08:46:12.127Z,17.30
2016-12-02T08:47:12.160Z,17.40
2016-12-02T08:48:11.245Z,17.40
2016-12-02T08:49:12.803Z,17.40
2016-12-02T08:50:13.486Z,17.40
2016-12-02T08:51:12.273Z,17.40
2016-12-02T08:52:11.202Z,17.40
2016-12-02T08:53:11.144Z,17.40
2016-12-02T08:54:11.701Z,17.40
2016-12-02T08:55:11.744Z,17.40
2016-12-02T08:56:12.462Z,17.40
2016-12-02T08:57:12.246Z,17.40
2016-12-02T08:58:11.241Z,17.40
2016-12-02T08:59:11.340Z,17.40
2016-12-02T09:00:12.558Z,17.40
2016-12-02T09:01:11.635Z,17.40
2016-12-02T09:02:11.652Z,17.40
2016-12-02T09:03:12.350Z,17.40
2016-12-02T09:04:12.021Z,17.40
2016-12-02T09:05:13.595Z,17.40
2016-12-02T09:06:11.627Z,17.40
2016-12-02T09:07:12.048Z,17.40
2016-12-02T09:08:11.766Z,17.40
2016-12-02T09:09:12.279Z,17.40
2016-12-02T09:10:11.212Z,17.40
2016-12-02T09:11:11.916Z,17.40
2016-12-02T09:12:12.651Z,17.40
2016-12-02T09:13:11.543Z,17.40
2016-12-02T09:14:12.205Z,17.40
2016-12-02T09:15:13.969Z,17.40
2016-12-02T09:16:11.371Z,17.40
2016-12-02T09:17:11.660Z,17.40
2016-12-02T09:18:12.078Z,17.40
2016-12-02T09:19:11.620Z,17.30
2016-12-02T09:20:11.579Z,17.30
2016-12-02T09:21:12.090Z,17.30
2016-12-02T09:22:11.238Z,17.30
2016-12-02T09:23:11.888Z,17.30
2016-12-02T09:24:11.821Z,17.40
2016-12-02T09:25:13.042Z,17.40
2016-12-02T09:26:12.909Z,17.40
2016-12-02T09:27:13.194Z,17.50
2016-12-02T09:28:11.245Z,17.50
2016-12-02T09:29:11.400Z,17.50
2016-12-02T09:30:12.395Z,17.60
2016-12-02T09:31:11.947Z,17.60
2016-12-02T09:32:12.527Z,17.60
2016-12-02T09:33:12.388Z,17.70
2016-12-02T09:34:12.074Z,17.70
2016-12-02T09:35:11.740Z,17.70
2016-12-02T09:36:12.384Z,17.70
2016-12-02T09:37:11.301Z,17.80
2016-12-02T09:38:11.613Z,17.80
2016-12-02T09:39:12.459Z,17.80
2016-12-02T09:40:11.420Z,17.80
2016-12-02T09:41:11.500Z,17.80
2016-12-02T09:42:11.504Z,17.90
2016-12-02T09:43:09.899Z,17.90
2016-12-02T09:44:10.099Z,17.90
2016-12-02T09:45:11.541Z,17.90
2016-12-02T09:46:12.290Z,17.90
2016-12-02T09:47:11.275Z,18.00
2016-12-02T09:48:08.498Z,18.00
2016-12-02T09:49:12.411Z,18.00
2016-12-02T09:50:09.396Z,17.90
2016-12-02T09:51:09.356Z,17.90
2016-12-02T09:52:13.311Z,17.90
2016-12-02T09:53:11.400Z,17.90
2016-12-02T09:54:12.180Z,17.90
2016-12-02T09:55:11.653Z,17.90
2016-12-02T09:56:13.498Z,17.90
2016-12-02T09:57:13.051Z,17.90
2016-12-02T09:58:13.892Z,17.90
2016-12-02T09:59:11.009Z,17.90
2016-12-02T10:00:12.666Z,17.90
2016-12-02T10:01:11.733Z,17.90
2016-12-02T10:02:13.521Z,17.90
2016-12-02T10:03:11.950Z,17.90
2016-12-02T10:04:12.402Z,17.90
2016-12-02T10:05:09.910Z,17.90
2016-12-02T10:06:08.779Z,17.90
2016-12-02T10:07:11.888Z,17.90
2016-12-02T10:08:12.270Z,17.90
2016-12-02T10:09:11.357Z,17.90
2016-12-02T10:10:11.360Z,17.90
2016-12-02T10:11:11.430Z,18.00
2016-12-02T10:12:12.450Z,18.00
2016-12-02T10:13:11.512Z,18.00
2016-12-02T10:14:12.459Z,18.00
2016-12-02T10:15:11.520Z,18.00
2016-12-02T10:16:11.528Z,18.00
2016-12-02T10:17:11.632Z,18.10
2016-12-02T10:18:12.032Z,18.10
2016-12-02T10:19:11.585Z,18.20
2016-12-02T10:20:09.996Z,18.20
2016-12-02T10:21:11.503Z,18.30
2016-12-02T10:22:11.584Z,18.30
2016-12-02T10:23:11.963Z,18.40
2016-12-02T10:24:12.771Z,18.40
2016-12-02T10:25:12.112Z,18.40
2016-12-02T10:26:11.239Z,18.50
2016-12-02T10:27:11.308Z,18.50
2016-12-02T10:28:12.084Z,18.60
2016-12-02T10:29:11.700Z,18.60
2016-12-02T10:30:12.493Z,18.70
2016-12-02T10:31:12.039Z,18.70
2016-12-02T10:32:11.951Z,18.80
2016-12-02T10:33:11.933Z,18.80
2016-12-02T10:34:12.549Z,18.80
2016-12-02T10:35:12.044Z,18.90
2016-12-02T10:36:11.713Z,18.90
2016-12-02T10:37:12.520Z,19.00
2016-12-02T10:38:11.562Z,19.00
2016-12-02T10:39:12.784Z,19.10
2016-12-02T10:40:13.158Z,19.10
2016-12-02T10:41:09.661Z,19.20
2016-12-02T10:42:10.301Z,19.20
2016-12-02T10:43:12.054Z,19.20
2016-12-02T10:44:11.268Z,19.20
2016-12-02T10:45:11.754Z,19.30
2016-12-02T10:46:11.702Z,19.20
2016-12-02T10:47:09.478Z,19.30
2016-12-02T10:48:13.572Z,19.30
2016-12-02T10:49:11.631Z,19.30
2016-12-02T10:50:11.617Z,19.30
2016-12-02T10:51:13.287Z,19.30
2016-12-02T10:52:09.983Z,19.30
2016-12-02T10:53:11.222Z,19.30
2016-12-02T10:54:12.102Z,19.30
2016-12-02T10:55:11.862Z,19.30
2016-12-02T10:56:13.441Z,19.30
2016-12-02T10:57:08.692Z,19.30
2016-12-02T10:58:12.543Z,19.30
2016-12-02T10:59:14.401Z,19.20
2016-12-02T11:00:09.942Z,19.30
2016-12-02T11:01:12.894Z,19.20
2016-12-02T11:02:11.814Z,19.20
2016-12-02T11:03:12.945Z,19.20
2016-12-02T11:04:12.092Z,19.20
2016-12-02T11:05:12.101Z,19.20
2016-12-02T11:06:11.965Z,19.20
2016-12-02T11:07:12.548Z,19.20
2016-12-02T11:08:11.487Z,19.20
2016-12-02T11:09:11.261Z,19.20
2016-12-02T11:10:12.004Z,19.30
2016-12-02T11:11:11.954Z,19.30
2016-12-02T11:12:12.494Z,19.30
2016-12-02T11:13:11.670Z,19.30
2016-12-02T11:14:11.537Z,19.30
2016-12-02T11:15:13.164Z,19.20
2016-12-02T11:16:11.209Z,19.20
2016-12-02T11:17:11.445Z,19.20
2016-12-02T11:18:11.902Z,19.20
2016-12-02T11:19:11.857Z,19.20
2016-12-02T11:20:10.173Z,19.20
2016-12-02T11:21:11.681Z,19.20
2016-12-02T11:22:12.256Z,19.20
2016-12-02T11:23:11.816Z,19.20
2016-12-02T11:24:10.204Z,19.20
2016-12-02T11:25:13.173Z,19.10
2016-12-02T11:26:11.304Z,19.10
2016-12-02T11:27:11.339Z,19.10
2016-12-02T11:28:11.413Z,19.10
2016-12-02T11:29:11.319Z,19.00
2016-12-02T11:30:11.420Z,19.00
2016-12-02T11:31:11.683Z,19.00
2016-12-02T11:32:12.240Z,19.00
2016-12-02T11:33:09.756Z,19.00
2016-12-02T11:34:11.745Z,18.90
2016-12-02T11:35:11.595Z,18.90
2016-12-02T11:36:11.633Z,18.90
2016-12-02T11:37:11.607Z,18.90
2016-12-02T11:38:11.721Z,18.90
2016-12-02T11:39:12.233Z,18.90
2016-12-02T11:40:11.292Z,18.90
2016-12-02T11:41:11.282Z,18.90
2016-12-02T11:42:11.769Z,18.90
2016-12-02T11:43:12.210Z,18.80
2016-12-02T11:44:09.813Z,18.90
2016-12-02T11:45:11.288Z,18.80
2016-12-02T11:46:11.369Z,18.80
2016-12-02T11:47:12.792Z,18.80
2016-12-02T11:48:11.977Z,18.80
2016-12-02T11:49:14.732Z,18.80
2016-12-02T11:50:09.547Z,18.80
2016-12-02T11:51:11.246Z,18.80
2016-12-02T11:52:13.200Z,18.80
2016-12-02T11:53:11.924Z,18.80
2016-12-02T11:54:13.339Z,18.80
2016-12-02T11:55:12.120Z,18.80
2016-12-02T11:56:11.136Z,18.90
2016-12-02T11:57:11.858Z,18.80
2016-12-02T11:58:13.494Z,18.80
2016-12-02T11:59:11.611Z,18.80
2016-12-02T12:00:12.152Z,18.80
2016-12-02T12:01:11.264Z,18.80
2016-12-02T12:02:11.930Z,18.80
2016-12-02T12:03:12.434Z,18.80
2016-12-02T12:04:13.111Z,18.80
2016-12-02T12:05:11.069Z,18.80
2016-12-02T12:06:10.992Z,18.80
2016-12-02T12:07:11.865Z,18.80
2016-12-02T12:08:11.855Z,18.80
2016-12-02T12:09:10.583Z,18.80
2016-12-02T12:10:12.303Z,18.80
2016-12-02T12:11:11.878Z,18.80
2016-12-02T12:12:09.430Z,18.80
2016-12-02T12:13:11.784Z,18.80
2016-12-02T12:14:14.289Z,18.80
2016-12-02T12:15:11.258Z,18.80
2016-12-02T12:16:12.125Z,18.80
2016-12-02T12:17:11.461Z,18.80
2016-12-02T12:18:11.378Z,18.80
2016-12-02T12:19:11.814Z,18.90
2016-12-02T12:20:12.236Z,18.80
2016-12-02T12:21:11.330Z,18.80
2016-12-02T12:22:15.026Z,18.80
2016-12-02T12:23:11.175Z,18.80
2016-12-02T12:24:12.027Z,18.80
2016-12-02T12:25:11.668Z,18.80
2016-12-02T12:26:14.281Z,18.80
2016-12-02T12:27:13.004Z,18.80
2016-12-02T12:28:11.855Z,18.80
2016-12-02T12:29:11.740Z,18.70
2016-12-02T12:30:11.832Z,18.70
2016-12-02T12:31:11.984Z,18.70
2016-12-02T12:32:13.081Z,18.70
2016-12-02T12:33:11.802Z,18.80
2016-12-02T12:34:10.080Z,18.80
2016-12-02T12:35:09.117Z,18.90
2016-12-02T12:36:11.467Z,18.80
2016-12-02T12:37:11.407Z,18.80
2016-12-02T12:38:12.131Z,18.80
2016-12-02T12:39:10.000Z,18.80
2016-12-02T12:40:11.225Z,18.80
2016-12-02T12:41:11.334Z,18.80
2016-12-02T12:42:11.403Z,18.80
2016-12-02T12:43:11.435Z,18.90
2016-12-02T12:44:11.459Z,18.90
2016-12-02T12:45:12.396Z,18.90
2016-12-02T12:46:11.385Z,18.90
2016-12-02T12:47:12.145Z,18.90
2016-12-02T12:48:11.230Z,18.90
2016-12-02T12:49:11.179Z,18.90
2016-12-02T12:50:12.765Z,18.90
2016-12-02T12:51:11.746Z,18.90
2016-12-02T12:52:13.390Z,18.90